createdAt,value
2023-03-28T00:00:09.944Z,31.12
2023-03-28T00:00:41.450Z,30.81
2023-03-28T00:01:12.982Z,30.97
2023-03-28T00:01:44.510Z,30.81
2023-03-28T00:02:15.981Z,30.88
2023-03-28T00:02:47.537Z,30.94
2023-03-28T00:03:19.314Z,31.04
2023-03-28T00:03:51.017Z,31.03
2023-03-28T00:04:22.449Z,31.04
2023-03-28T00:04:56.702Z,31.00
2023-03-28T00:05:30.096Z,31.12
2023-03-28T00:06:01.810Z,31.23
2023-03-28T00:06:33.605Z,31.03
2023-03-28T00:07:05.049Z,31.12
2023-03-28T00:07:36.580Z,31.08
2023-03-28T00:08:08.053Z,30.92
2023-03-28T00:08:39.640Z,31.00
2023-03-28T00:09:11.091Z,30.98
2023-03-28T00:09:42.792Z,30.97
2023-03-28T00:10:14.234Z,30.83
2023-03-28T00:10:48.392Z,30.86
2023-03-28T00:11:20.409Z,30.90
2023-03-28T00:11:52.310Z,30.95
2023-03-28T00:12:23.730Z,30.79
2023-03-28T00:12:55.276Z,30.87
2023-03-28T00:13:26.695Z,30.97
2023-03-28T00:13:58.513Z,31.02
2023-03-28T00:14:30.068Z,30.98
2023-03-28T00:15:04.378Z,30.93
2023-03-28T00:15:38.719Z,31.05
2023-03-28T00:16:10.320Z,31.12
2023-03-28T00:16:41.852Z,31.12
2023-03-28T00:17:13.475Z,30.91
2023-03-28T00:17:44.994Z,31.08
2023-03-28T00:18:16.552Z,31.12
2023-03-28T00:18:47.996Z,31.11
2023-03-28T00:19:19.556Z,31.15
2023-03-28T00:19:53.553Z,31.01
2023-03-28T00:20:24.970Z,31.09
2023-03-28T00:20:56.403Z,31.03
2023-03-28T00:21:28.148Z,30.96
2023-03-28T00:21:59.597Z,31.15
2023-03-28T00:22:31.175Z,31.05
2023-03-28T00:23:02.571Z,31.04
2023-03-28T00:23:33.976Z,31.00
2023-03-28T00:24:05.400Z,30.99
2023-03-28T00:24:39.949Z,31.10
2023-03-28T00:25:11.362Z,31.14
2023-03-28T00:25:42.891Z,31.17
2023-03-28T00:26:14.366Z,31.14
2023-03-28T00:26:45.906Z,30.92
2023-03-28T00:27:17.378Z,31.18
2023-03-28T00:27:48.956Z,30.98
2023-03-28T00:28:20.381Z,31.10
2023-03-28T00:28:54.850Z,31.04
2023-03-28T00:29:26.393Z,31.09
2023-03-28T00:30:00.333Z,31.12
2023-03-28T00:30:31.805Z,31.00
2023-03-28T00:31:03.345Z,30.99
2023-03-28T00:31:35.142Z,30.82
2023-03-28T00:32:06.819Z,30.99
2023-03-28T00:32:38.415Z,30.98
2023-03-28T00:33:09.887Z,30.96
2023-03-28T00:33:41.450Z,30.95
2023-03-28T00:34:12.900Z,30.93
2023-03-28T00:34:44.411Z,30.96
2023-03-28T00:35:15.877Z,31.06
2023-03-28T00:35:47.432Z,31.08
2023-03-28T00:36:18.981Z,30.99
2023-03-28T00:36:50.562Z,31.13
2023-03-28T00:37:22.005Z,31.05
2023-03-28T00:37:53.617Z,31.07
2023-03-28T00:38:25.130Z,31.12
2023-03-28T00:38:56.724Z,30.98
2023-03-28T00:39:28.135Z,31.00
2023-03-28T00:39:59.698Z,31.02
2023-03-28T00:40:31.148Z,31.05
2023-03-28T00:41:02.720Z,30.91
2023-03-28T00:41:34.182Z,31.00
2023-03-28T00:42:05.713Z,31.08
2023-03-28T00:42:37.149Z,30.90
2023-03-28T00:43:08.830Z,31.06
2023-03-28T00:43:40.274Z,30.95
2023-03-28T00:44:11.776Z,31.00
2023-03-28T00:44:43.350Z,31.06
2023-03-28T00:45:14.947Z,31.03
2023-03-28T00:45:50.770Z,31.07
2023-03-28T00:46:30.689Z,31.02
2023-03-28T00:47:02.185Z,30.96
2023-03-28T00:47:33.673Z,30.99
2023-03-28T00:48:05.298Z,30.88
2023-03-28T00:48:36.872Z,30.92
2023-03-28T00:49:08.271Z,31.00
2023-03-28T00:49:39.768Z,30.82
2023-03-28T00:50:11.225Z,30.94
2023-03-28T00:50:42.675Z,30.90
2023-03-28T00:51:17.281Z,30.82
2023-03-28T00:51:48.708Z,30.93
2023-03-28T00:52:20.373Z,30.87
2023-03-28T00:52:51.746Z,30.77
2023-03-28T00:53:23.238Z,30.96
2023-03-28T00:53:56.695Z,30.94
2023-03-28T00:54:28.102Z,30.90
2023-03-28T00:54:59.627Z,30.97
2023-03-28T00:55:31.091Z,30.93
2023-03-28T00:56:02.598Z,30.90
2023-03-28T00:56:34.130Z,30.91
2023-03-28T00:57:05.603Z,30.91
2023-03-28T00:57:38.576Z,30.94
2023-03-28T00:58:10.081Z,30.89
2023-03-28T00:58:41.569Z,30.92
2023-03-28T00:59:13.042Z,30.96
2023-03-28T00:59:44.532Z,30.93
2023-03-28T01:00:16.028Z,30.92
2023-03-28T01:00:47.510Z,30.93
2023-03-28T01:01:19.024Z,30.87
2023-03-28T01:01:50.787Z,30.87
2023-03-28T01:02:22.266Z,30.83
2023-03-28T01:02:53.898Z,31.05
2023-03-28T01:03:25.497Z,30.95
2023-03-28T01:03:57.202Z,31.02
2023-03-28T01:04:28.646Z,30.72
2023-03-28T01:05:00.207Z,30.76
2023-03-28T01:05:31.649Z,30.90
2023-03-28T01:06:03.125Z,30.93
2023-03-28T01:06:34.525Z,30.74
2023-03-28T01:07:09.251Z,30.74
2023-03-28T01:07:40.631Z,30.74
2023-03-28T01:08:12.123Z,30.69
2023-03-28T01:08:43.513Z,30.93
2023-03-28T01:09:15.116Z,30.88
2023-03-28T01:09:46.559Z,30.88
2023-03-28T01:10:18.061Z,30.85
2023-03-28T01:10:49.507Z,30.96
2023-03-28T01:11:21.037Z,30.87
2023-03-28T01:11:52.548Z,30.89
2023-03-28T01:12:24.199Z,30.98
2023-03-28T01:12:55.640Z,31.21
2023-03-28T01:13:27.152Z,30.88
2023-03-28T01:13:58.708Z,30.93
2023-03-28T01:14:30.378Z,30.99
2023-03-28T01:15:05.301Z,30.84
2023-03-28T01:15:36.789Z,30.97
2023-03-28T01:16:08.371Z,30.89
2023-03-28T01:16:39.919Z,30.79
2023-03-28T01:17:11.341Z,30.71
2023-03-28T01:17:42.775Z,30.85
2023-03-28T01:18:14.193Z,30.94
2023-03-28T01:18:45.685Z,30.91
2023-03-28T01:19:17.107Z,30.98
2023-03-28T01:19:48.703Z,30.96
2023-03-28T01:20:20.114Z,30.92
2023-03-28T01:20:51.631Z,30.80
2023-03-28T01:21:23.139Z,30.88
2023-03-28T01:21:54.697Z,30.88
2023-03-28T01:22:26.094Z,30.90
2023-03-28T01:22:57.905Z,30.81
2023-03-28T01:23:29.598Z,30.96
2023-03-28T01:24:10.987Z,30.77
2023-03-28T01:24:43.886Z,30.71
2023-03-28T01:25:15.306Z,30.62
2023-03-28T01:25:46.829Z,30.76
2023-03-28T01:26:18.223Z,30.70
2023-03-28T01:26:49.833Z,30.94
2023-03-28T01:27:21.247Z,30.96
2023-03-28T01:27:52.669Z,30.81
2023-03-28T01:28:24.093Z,30.75
2023-03-28T01:28:55.561Z,30.60
2023-03-28T01:29:27.028Z,30.72
2023-03-28T01:29:58.490Z,30.69
2023-03-28T01:30:29.936Z,30.66
2023-03-28T01:31:04.322Z,30.82
2023-03-28T01:31:35.849Z,30.86
2023-03-28T01:32:07.378Z,30.72
2023-03-28T01:32:38.852Z,30.65
2023-03-28T01:33:10.627Z,30.76
2023-03-28T01:33:42.073Z,30.73
2023-03-28T01:34:13.701Z,30.65
2023-03-28T01:34:45.166Z,30.67
2023-03-28T01:35:16.699Z,30.66
2023-03-28T01:35:51.152Z,30.95
2023-03-28T01:36:34.319Z,30.83
2023-03-28T01:37:07.190Z,30.71
2023-03-28T01:37:38.668Z,30.78
2023-03-28T01:38:15.735Z,30.96
2023-03-28T01:38:47.153Z,30.98
2023-03-28T01:39:18.632Z,30.88
2023-03-28T01:39:50.047Z,30.78
2023-03-28T01:40:21.496Z,30.96
2023-03-28T01:40:53.032Z,30.97
2023-03-28T01:41:24.425Z,30.93
2023-03-28T01:41:55.996Z,30.94
2023-03-28T01:42:27.471Z,30.90
2023-03-28T01:43:01.541Z,30.76
2023-03-28T01:43:33.065Z,30.71
2023-03-28T01:44:04.538Z,30.66
2023-03-28T01:44:38.812Z,30.77
2023-03-28T01:45:10.302Z,30.68
2023-03-28T01:45:41.761Z,30.78
2023-03-28T01:46:13.335Z,30.84
2023-03-28T01:46:45.070Z,30.82
2023-03-28T01:47:16.541Z,30.74
2023-03-28T01:47:48.032Z,30.69
2023-03-28T01:48:19.526Z,30.75
2023-03-28T01:48:50.994Z,30.86
2023-03-28T01:49:22.520Z,30.72
2023-03-28T01:49:54.245Z,30.70
2023-03-28T01:50:25.672Z,30.71
2023-03-28T01:50:57.175Z,30.81
2023-03-28T01:51:34.250Z,30.78
2023-03-28T01:52:05.821Z,30.65
2023-03-28T01:52:37.267Z,30.70
2023-03-28T01:53:08.727Z,30.65
2023-03-28T01:53:40.214Z,30.85
2023-03-28T01:54:11.702Z,30.66
2023-03-28T01:54:43.163Z,30.67
2023-03-28T01:55:14.625Z,30.82
2023-03-28T01:55:46.080Z,30.65
2023-03-28T01:56:17.506Z,30.65
2023-03-28T01:56:49.251Z,30.88
2023-03-28T01:57:20.930Z,30.56
2023-03-28T01:57:52.429Z,30.47
2023-03-28T01:58:23.952Z,30.69
2023-03-28T01:58:55.411Z,30.66
2023-03-28T01:59:27.038Z,30.72
2023-03-28T01:59:58.540Z,30.70
2023-03-28T02:00:38.560Z,30.51
2023-03-28T02:01:10.076Z,30.53
2023-03-28T02:01:41.546Z,30.67
2023-03-28T02:02:13.163Z,30.84
2023-03-28T02:02:44.728Z,30.76
2023-03-28T02:03:16.434Z,30.81
2023-03-28T02:03:47.902Z,30.69
2023-03-28T02:04:20.522Z,30.72
2023-03-28T02:04:52.576Z,30.76
2023-03-28T02:05:28.671Z,30.74
2023-03-28T02:06:00.244Z,30.68
2023-03-28T02:06:31.985Z,30.63
2023-03-28T02:07:03.618Z,30.71
2023-03-28T02:07:37.664Z,30.73
2023-03-28T02:08:09.075Z,30.81
2023-03-28T02:08:40.604Z,30.67
2023-03-28T02:09:12.058Z,30.71
2023-03-28T02:09:43.649Z,30.64
2023-03-28T02:10:15.171Z,30.57
2023-03-28T02:10:46.792Z,30.76
2023-03-28T02:11:18.220Z,30.58
2023-03-28T02:11:49.789Z,30.54
2023-03-28T02:12:21.218Z,30.59
2023-03-28T02:12:52.968Z,30.62
2023-03-28T02:13:24.413Z,30.51
2023-03-28T02:13:56.070Z,30.37
2023-03-28T02:14:27.509Z,30.59
2023-03-28T02:14:59.063Z,30.61
2023-03-28T02:15:30.455Z,30.60
2023-03-28T02:16:02.230Z,30.46
2023-03-28T02:16:34.126Z,30.66
2023-03-28T02:17:05.958Z,30.64
2023-03-28T02:17:37.450Z,30.75
2023-03-28T02:18:08.908Z,30.80
2023-03-28T02:18:40.328Z,30.78
2023-03-28T02:19:11.802Z,30.57
2023-03-28T02:19:43.323Z,30.55
2023-03-28T02:20:14.811Z,30.54
2023-03-28T02:20:46.252Z,30.65
2023-03-28T02:21:17.656Z,30.52
2023-03-28T02:21:49.181Z,30.66
2023-03-28T02:22:20.701Z,30.85
2023-03-28T02:22:52.254Z,30.53
2023-03-28T02:23:23.731Z,30.46
2023-03-28T02:23:55.215Z,30.67
2023-03-28T02:24:26.620Z,30.48
2023-03-28T02:24:58.037Z,30.62
2023-03-28T02:25:29.587Z,30.72
2023-03-28T02:26:01.265Z,30.60
2023-03-28T02:26:32.954Z,30.67
2023-03-28T02:27:04.514Z,30.74
2023-03-28T02:27:35.948Z,30.73
2023-03-28T02:28:07.434Z,30.79
2023-03-28T02:28:38.869Z,30.67
2023-03-28T02:29:10.319Z,30.69
2023-03-28T02:29:41.830Z,30.62
2023-03-28T02:30:13.233Z,30.77
2023-03-28T02:30:44.745Z,30.60
2023-03-28T02:31:16.178Z,30.63
2023-03-28T02:31:47.798Z,30.65
2023-03-28T02:32:19.333Z,30.61
2023-03-28T02:32:50.888Z,30.58
2023-03-28T02:33:22.365Z,30.55
2023-03-28T02:33:53.928Z,30.71
2023-03-28T02:34:25.354Z,30.63
2023-03-28T02:34:56.913Z,30.55
2023-03-28T02:35:28.429Z,30.68
2023-03-28T02:36:00.181Z,30.63
2023-03-28T02:36:34.563Z,30.73
2023-03-28T02:37:06.297Z,30.82
2023-03-28T02:37:37.798Z,30.74
2023-03-28T02:38:09.319Z,30.76
2023-03-28T02:38:43.728Z,30.83
2023-03-28T02:39:15.243Z,30.63
2023-03-28T02:39:46.622Z,30.52
2023-03-28T02:40:18.098Z,30.46
2023-03-28T02:40:49.540Z,30.46
2023-03-28T02:41:21.077Z,30.88
2023-03-28T02:41:52.544Z,30.82
2023-03-28T02:42:24.065Z,30.59
2023-03-28T02:42:55.651Z,30.60
2023-03-28T02:43:27.128Z,30.84
2023-03-28T02:44:00.367Z,30.65
2023-03-28T02:44:31.855Z,30.64
2023-03-28T02:45:08.826Z,30.58
2023-03-28T02:45:40.359Z,30.68
2023-03-28T02:46:11.938Z,30.67
2023-03-28T02:46:43.450Z,30.69
2023-03-28T02:47:14.928Z,30.66
2023-03-28T02:47:46.403Z,30.74
2023-03-28T02:48:17.960Z,30.71
2023-03-28T02:48:49.375Z,30.62
2023-03-28T02:49:20.806Z,30.68
2023-03-28T02:49:52.336Z,30.36
2023-03-28T02:50:25.049Z,30.72
2023-03-28T02:50:56.478Z,30.62
2023-03-28T02:51:28.050Z,30.90
2023-03-28T02:51:59.492Z,30.80
2023-03-28T02:52:30.982Z,30.70
2023-03-28T02:53:02.444Z,30.67
2023-03-28T02:53:34.031Z,30.60
2023-03-28T02:54:05.420Z,30.64
2023-03-28T02:54:36.943Z,30.76
2023-03-28T02:55:11.481Z,30.62
2023-03-28T02:55:43.068Z,30.68
2023-03-28T02:56:14.502Z,30.50
2023-03-28T02:56:45.991Z,30.57
2023-03-28T02:57:17.481Z,30.61
2023-03-28T02:57:48.925Z,30.57
2023-03-28T02:58:22.929Z,30.49
2023-03-28T02:58:54.445Z,30.66
2023-03-28T02:59:25.855Z,30.65
2023-03-28T02:59:57.428Z,30.59
2023-03-28T03:00:28.938Z,30.83
2023-03-28T03:01:00.475Z,30.71
2023-03-28T03:01:34.611Z,30.63
2023-03-28T03:02:06.086Z,30.61
2023-03-28T03:02:37.656Z,30.55
2023-03-28T03:03:09.570Z,30.63
2023-03-28T03:03:43.812Z,30.52
2023-03-28T03:04:15.603Z,30.71
2023-03-28T03:04:47.034Z,30.52
2023-03-28T03:05:18.544Z,30.48
2023-03-28T03:05:49.999Z,30.67
2023-03-28T03:06:21.506Z,30.67
2023-03-28T03:06:52.950Z,30.80
2023-03-28T03:07:24.573Z,30.75
2023-03-28T03:07:56.000Z,30.50
2023-03-28T03:08:27.465Z,30.66
2023-03-28T03:08:58.973Z,30.65
2023-03-28T03:09:30.719Z,30.68
2023-03-28T03:10:02.226Z,30.92
2023-03-28T03:10:33.756Z,30.96
2023-03-28T03:11:05.191Z,30.78
2023-03-28T03:11:36.641Z,30.65
2023-03-28T03:12:08.152Z,30.70
2023-03-28T03:12:39.615Z,30.64
2023-03-28T03:13:11.175Z,30.85
2023-03-28T03:13:42.560Z,30.77
2023-03-28T03:14:14.174Z,30.66
2023-03-28T03:14:45.699Z,30.57
2023-03-28T03:15:17.287Z,30.75
2023-03-28T03:15:48.782Z,30.53
2023-03-28T03:16:20.383Z,30.61
2023-03-28T03:16:51.921Z,30.57
2023-03-28T03:17:23.466Z,30.64
2023-03-28T03:17:54.941Z,30.54
2023-03-28T03:18:26.471Z,30.38
2023-03-28T03:18:57.944Z,30.37
2023-03-28T03:19:29.478Z,30.59
2023-03-28T03:20:01.030Z,30.44
2023-03-28T03:20:32.560Z,30.62
2023-03-28T03:21:04.052Z,30.53
2023-03-28T03:21:35.643Z,30.66
2023-03-28T03:22:07.065Z,30.77
2023-03-28T03:22:38.621Z,30.43
2023-03-28T03:23:10.111Z,30.46
2023-03-28T03:23:44.394Z,30.34
2023-03-28T03:24:15.847Z,30.45
2023-03-28T03:24:47.228Z,30.65
2023-03-28T03:25:18.805Z,30.49
2023-03-28T03:25:50.208Z,30.52
2023-03-28T03:26:21.643Z,30.44
2023-03-28T03:26:53.093Z,30.62
2023-03-28T03:27:24.529Z,30.59
2023-03-28T03:27:56.008Z,30.60
2023-03-28T03:28:27.428Z,30.66
2023-03-28T03:28:58.935Z,30.58
2023-03-28T03:29:39.122Z,30.37
2023-03-28T03:30:11.186Z,30.52
2023-03-28T03:30:42.724Z,30.49
2023-03-28T03:31:17.050Z,30.46
2023-03-28T03:31:48.644Z,30.38
2023-03-28T03:32:20.247Z,30.63
2023-03-28T03:32:51.698Z,30.67
2023-03-28T03:33:23.247Z,30.54
2023-03-28T03:33:54.682Z,30.45
2023-03-28T03:34:26.211Z,30.50
2023-03-28T03:34:57.716Z,30.56
2023-03-28T03:35:29.308Z,30.50
2023-03-28T03:36:00.946Z,30.54
2023-03-28T03:36:32.770Z,30.59
2023-03-28T03:37:04.221Z,30.57
2023-03-28T03:37:35.639Z,30.58
2023-03-28T03:38:07.201Z,30.67
2023-03-28T03:38:38.594Z,30.47
2023-03-28T03:39:10.030Z,30.62
2023-03-28T03:39:41.547Z,30.41
2023-03-28T03:40:12.953Z,30.56
2023-03-28T03:40:44.548Z,30.64
2023-03-28T03:41:16.087Z,30.64
2023-03-28T03:41:47.570Z,30.55
2023-03-28T03:42:18.996Z,30.79
2023-03-28T03:42:50.574Z,30.76
2023-03-28T03:43:22.038Z,30.72
2023-03-28T03:43:53.508Z,30.75
2023-03-28T03:44:24.927Z,30.78
2023-03-28T03:44:56.367Z,30.65
2023-03-28T03:45:27.924Z,30.59
2023-03-28T03:45:59.636Z,30.62
2023-03-28T03:46:31.283Z,30.62
2023-03-28T03:47:02.802Z,30.73
2023-03-28T03:47:34.287Z,30.79
2023-03-28T03:48:05.941Z,30.67
2023-03-28T03:48:37.459Z,30.73
2023-03-28T03:49:20.279Z,30.75
2023-03-28T03:49:51.717Z,30.70
2023-03-28T03:50:23.145Z,30.73
2023-03-28T03:50:54.605Z,30.67
2023-03-28T03:51:26.017Z,30.76
2023-03-28T03:51:57.474Z,30.82
2023-03-28T03:52:28.868Z,30.72
2023-03-28T03:53:00.437Z,30.82
2023-03-28T03:53:31.888Z,30.78
2023-03-28T03:54:03.324Z,30.65
2023-03-28T03:54:36.213Z,30.72
2023-03-28T03:55:09.478Z,30.72
2023-03-28T03:55:41.070Z,30.68
2023-03-28T03:56:12.648Z,30.76
2023-03-28T03:56:44.107Z,30.66
2023-03-28T03:57:15.629Z,30.68
2023-03-28T03:57:47.109Z,30.72
2023-03-28T03:58:18.692Z,30.61
2023-03-28T03:58:52.013Z,30.69
2023-03-28T03:59:23.449Z,30.58
2023-03-28T03:59:54.943Z,30.77
2023-03-28T04:00:26.405Z,30.63
2023-03-28T04:00:57.835Z,30.80
2023-03-28T04:01:29.250Z,30.67
2023-03-28T04:02:00.763Z,30.70
2023-03-28T04:02:32.384Z,30.64
2023-03-28T04:03:03.945Z,30.52
2023-03-28T04:03:35.554Z,30.68
2023-03-28T04:04:07.146Z,30.68
2023-03-28T04:04:38.654Z,30.63
2023-03-28T04:05:10.068Z,30.75
2023-03-28T04:05:41.503Z,30.81
2023-03-28T04:06:13.119Z,30.68
2023-03-28T04:06:44.544Z,30.66
2023-03-28T04:07:16.012Z,30.46
2023-03-28T04:07:47.520Z,30.66
2023-03-28T04:08:18.986Z,30.60
2023-03-28T04:08:50.523Z,30.77
2023-03-28T04:09:22.011Z,30.71
2023-03-28T04:09:53.469Z,30.72
2023-03-28T04:10:24.935Z,30.76
2023-03-28T04:10:56.422Z,30.71
2023-03-28T04:11:27.969Z,30.63
2023-03-28T04:11:59.392Z,30.65
2023-03-28T04:12:30.841Z,30.67
2023-03-28T04:13:02.332Z,30.63
2023-03-28T04:13:33.816Z,30.76
2023-03-28T04:14:05.405Z,30.51
2023-03-28T04:14:36.870Z,30.68
2023-03-28T04:15:08.408Z,30.60
2023-03-28T04:15:39.839Z,30.61
2023-03-28T04:16:11.409Z,30.61
2023-03-28T04:16:42.949Z,30.63
2023-03-28T04:17:16.832Z,30.57
2023-03-28T04:17:48.316Z,30.48
2023-03-28T04:18:22.016Z,30.34
2023-03-28T04:18:53.551Z,30.61
2023-03-28T04:19:25.040Z,30.53
2023-03-28T04:19:56.588Z,30.68
2023-03-28T04:20:28.011Z,30.62
2023-03-28T04:20:59.553Z,30.39
2023-03-28T04:21:31.024Z,30.48
2023-03-28T04:22:02.593Z,30.63
2023-03-28T04:22:34.024Z,30.77
2023-03-28T04:23:06.020Z,30.58
2023-03-28T04:23:37.770Z,30.76
2023-03-28T04:24:09.223Z,30.71
2023-03-28T04:24:40.724Z,30.53
2023-03-28T04:25:12.226Z,30.61
2023-03-28T04:25:44.058Z,30.59
2023-03-28T04:26:18.273Z,30.53
2023-03-28T04:26:49.765Z,30.70
2023-03-28T04:27:21.207Z,30.71
2023-03-28T04:27:52.639Z,30.75
2023-03-28T04:28:24.231Z,30.63
2023-03-28T04:28:55.619Z,30.60
2023-03-28T04:29:27.172Z,30.67
2023-03-28T04:29:58.612Z,30.58
2023-03-28T04:30:30.206Z,30.70
2023-03-28T04:31:01.706Z,30.81
2023-03-28T04:31:33.314Z,30.63
2023-03-28T04:32:06.347Z,30.56
2023-03-28T04:32:37.877Z,30.68
2023-03-28T04:33:09.545Z,30.57
2023-03-28T04:33:41.294Z,30.46
2023-03-28T04:34:12.717Z,30.69
2023-03-28T04:34:44.242Z,30.61
2023-03-28T04:35:15.689Z,30.78
2023-03-28T04:35:47.184Z,30.71
2023-03-28T04:36:18.838Z,30.64
2023-03-28T04:36:50.375Z,30.64
2023-03-28T04:37:21.803Z,30.56
2023-03-28T04:37:53.279Z,30.48
2023-03-28T04:38:24.793Z,30.47
2023-03-28T04:38:56.332Z,30.48
2023-03-28T04:39:27.868Z,30.54
2023-03-28T04:39:59.332Z,30.41
2023-03-28T04:40:30.883Z,30.67
2023-03-28T04:41:02.335Z,30.62
2023-03-28T04:41:33.906Z,30.81
2023-03-28T04:42:05.518Z,30.66
2023-03-28T04:42:37.047Z,30.71
2023-03-28T04:43:08.459Z,30.85
2023-03-28T04:43:40.000Z,30.61
2023-03-28T04:44:11.540Z,30.61
2023-03-28T04:44:43.046Z,30.70
2023-03-28T04:45:17.146Z,30.54
2023-03-28T04:45:49.453Z,30.51
2023-03-28T04:46:21.169Z,30.56
2023-03-28T04:46:52.743Z,30.56
2023-03-28T04:47:24.208Z,30.57
2023-03-28T04:47:55.697Z,30.71
2023-03-28T04:48:27.193Z,30.66
2023-03-28T04:48:58.672Z,30.55
2023-03-28T04:49:31.042Z,30.67
2023-03-28T04:50:02.485Z,30.60
2023-03-28T04:50:35.734Z,30.72
2023-03-28T04:51:07.565Z,30.81
2023-03-28T04:51:39.016Z,30.68
2023-03-28T04:52:10.634Z,30.72
2023-03-28T04:52:42.087Z,30.70
2023-03-28T04:53:13.571Z,30.63
2023-03-28T04:53:44.971Z,30.59
2023-03-28T04:54:16.583Z,30.67
2023-03-28T04:54:48.139Z,30.47
2023-03-28T04:55:19.879Z,30.52
2023-03-28T04:55:51.399Z,30.43
2023-03-28T04:56:22.803Z,30.67
2023-03-28T04:56:57.014Z,30.46
2023-03-28T04:57:28.504Z,30.58
2023-03-28T04:57:59.996Z,30.68
2023-03-28T04:58:31.438Z,30.59
2023-03-28T04:59:02.892Z,30.49
2023-03-28T04:59:34.547Z,30.70
2023-03-28T05:00:07.114Z,30.50
2023-03-28T05:00:38.506Z,30.60
2023-03-28T05:01:09.950Z,30.61
2023-03-28T05:01:41.351Z,30.51
2023-03-28T05:02:13.064Z,30.62
2023-03-28T05:02:44.651Z,30.70
2023-03-28T05:03:16.244Z,30.59
2023-03-28T05:03:47.880Z,30.58
2023-03-28T05:04:19.291Z,30.61
2023-03-28T05:04:50.730Z,30.58
2023-03-28T05:05:22.255Z,30.56
2023-03-28T05:05:53.710Z,30.41
2023-03-28T05:06:25.170Z,30.37
2023-03-28T05:06:56.600Z,30.55
2023-03-28T05:07:28.108Z,30.50
2023-03-28T05:07:59.698Z,30.33
2023-03-28T05:08:31.350Z,30.55
2023-03-28T05:09:02.808Z,30.36
2023-03-28T05:09:36.758Z,30.65
2023-03-28T05:10:08.276Z,30.47
2023-03-28T05:10:39.793Z,30.40
2023-03-28T05:11:11.334Z,30.49
2023-03-28T05:11:42.773Z,30.57
2023-03-28T05:12:14.240Z,30.38
2023-03-28T05:12:45.763Z,30.37
2023-03-28T05:13:17.414Z,30.46
2023-03-28T05:13:48.788Z,30.46
2023-03-28T05:14:20.275Z,30.40
2023-03-28T05:14:51.730Z,30.55
2023-03-28T05:15:23.379Z,30.62
2023-03-28T05:15:55.125Z,30.54
2023-03-28T05:16:26.685Z,30.58
2023-03-28T05:16:58.118Z,30.30
2023-03-28T05:17:29.674Z,30.31
2023-03-28T05:18:01.208Z,30.50
2023-03-28T05:18:32.782Z,30.46
2023-03-28T05:19:04.165Z,30.41
2023-03-28T05:19:35.535Z,30.40
2023-03-28T05:20:07.060Z,30.60
2023-03-28T05:20:38.493Z,30.40
2023-03-28T05:21:10.033Z,30.71
2023-03-28T05:21:41.513Z,30.58
2023-03-28T05:22:13.073Z,30.46
2023-03-28T05:22:44.478Z,30.58
2023-03-28T05:23:15.908Z,30.36
2023-03-28T05:23:51.651Z,30.33
2023-03-28T05:24:23.801Z,30.38
2023-03-28T05:24:55.408Z,30.29
2023-03-28T05:25:26.902Z,30.46
2023-03-28T05:25:58.351Z,30.34
2023-03-28T05:26:29.936Z,30.41
2023-03-28T05:27:03.857Z,30.38
2023-03-28T05:27:35.350Z,30.30
2023-03-28T05:28:06.758Z,30.48
2023-03-28T05:28:38.273Z,30.46
2023-03-28T05:29:09.762Z,30.38
2023-03-28T05:29:41.369Z,30.42
2023-03-28T05:30:12.814Z,30.39
2023-03-28T05:30:44.306Z,30.26
2023-03-28T05:31:15.810Z,30.36
2023-03-28T05:31:47.376Z,30.41
2023-03-28T05:32:18.931Z,30.31
2023-03-28T05:32:50.568Z,30.42
2023-03-28T05:33:21.997Z,30.44
2023-03-28T05:33:53.522Z,30.52
2023-03-28T05:34:24.963Z,30.47
2023-03-28T05:34:56.511Z,30.46
2023-03-28T05:35:27.965Z,30.44
2023-03-28T05:35:59.403Z,30.43
2023-03-28T05:36:30.922Z,30.38
2023-03-28T05:37:02.343Z,30.44
2023-03-28T05:37:33.904Z,30.44
2023-03-28T05:38:05.346Z,30.42
2023-03-28T05:38:36.891Z,30.45
2023-03-28T05:39:08.335Z,30.46
2023-03-28T05:39:39.881Z,30.46
2023-03-28T05:40:11.364Z,30.26
2023-03-28T05:40:42.809Z,30.39
2023-03-28T05:41:14.344Z,30.40
2023-03-28T05:41:45.799Z,30.37
2023-03-28T05:42:17.230Z,30.54
2023-03-28T05:42:48.695Z,30.45
2023-03-28T05:43:20.240Z,30.45
2023-03-28T05:43:51.641Z,30.66
2023-03-28T05:44:23.085Z,30.36
2023-03-28T05:44:54.630Z,30.54
2023-03-28T05:45:26.081Z,30.38
2023-03-28T05:45:57.691Z,30.24
2023-03-28T05:46:29.205Z,30.36
2023-03-28T05:47:00.616Z,30.36
2023-03-28T05:47:32.050Z,30.41
2023-03-28T05:48:03.732Z,30.33
2023-03-28T05:48:35.277Z,30.35
2023-03-28T05:49:06.750Z,30.40
2023-03-28T05:49:38.171Z,30.55
2023-03-28T05:50:09.750Z,30.43
2023-03-28T05:50:41.141Z,30.24
2023-03-28T05:51:12.696Z,30.52
2023-03-28T05:51:44.097Z,30.45
2023-03-28T05:52:15.723Z,30.41
2023-03-28T05:52:47.164Z,30.43
2023-03-28T05:53:18.697Z,30.38
2023-03-28T05:53:50.169Z,30.60
2023-03-28T05:54:21.735Z,30.58
2023-03-28T05:54:53.141Z,30.38
2023-03-28T05:55:24.706Z,30.35
2023-03-28T05:55:56.113Z,30.41
2023-03-28T05:56:27.548Z,30.36
2023-03-28T05:56:59.162Z,30.62
2023-03-28T05:57:33.599Z,30.37
2023-03-28T05:58:05.155Z,30.57
2023-03-28T05:58:36.582Z,30.52
2023-03-28T05:59:08.121Z,30.56
2023-03-28T05:59:39.565Z,30.37
2023-03-28T06:00:11.104Z,30.47
2023-03-28T06:00:42.650Z,30.49
2023-03-28T06:01:14.195Z,30.45
2023-03-28T06:01:45.706Z,30.48
2023-03-28T06:02:17.208Z,30.45
2023-03-28T06:02:48.799Z,30.48
2023-03-28T06:03:20.490Z,30.44
2023-03-28T06:03:54.475Z,30.46
2023-03-28T06:04:25.943Z,30.54
2023-03-28T06:05:00.461Z,30.46
2023-03-28T06:05:32.002Z,30.55
2023-03-28T06:06:03.989Z,30.54
2023-03-28T06:06:35.567Z,30.46
2023-03-28T06:07:06.981Z,30.37
2023-03-28T06:07:42.445Z,30.36
2023-03-28T06:08:14.683Z,30.46
2023-03-28T06:08:46.323Z,30.43
2023-03-28T06:09:17.789Z,30.41
2023-03-28T06:09:49.222Z,30.35
2023-03-28T06:10:20.791Z,30.35
2023-03-28T06:10:52.234Z,30.36
2023-03-28T06:11:23.918Z,30.54
2023-03-28T06:11:55.358Z,30.44
2023-03-28T06:12:26.944Z,30.24
2023-03-28T06:12:58.353Z,30.48
2023-03-28T06:13:29.901Z,30.41
2023-03-28T06:14:01.312Z,30.65
2023-03-28T06:14:32.844Z,30.45
2023-03-28T06:15:07.026Z,30.75
2023-03-28T06:15:38.558Z,30.48
2023-03-28T06:16:09.991Z,30.41
2023-03-28T06:16:42.113Z,30.33
2023-03-28T06:17:13.641Z,30.56
2023-03-28T06:17:45.163Z,30.47
2023-03-28T06:18:16.742Z,30.38
2023-03-28T06:18:48.233Z,30.42
2023-03-28T06:19:19.713Z,30.48
2023-03-28T06:19:54.244Z,30.48
2023-03-28T06:20:25.683Z,30.46
2023-03-28T06:20:57.291Z,30.29
2023-03-28T06:21:28.797Z,30.42
2023-03-28T06:22:00.410Z,30.37
2023-03-28T06:22:31.816Z,30.64
2023-03-28T06:23:03.442Z,30.33
2023-03-28T06:23:34.861Z,30.39
2023-03-28T06:24:06.435Z,30.61
2023-03-28T06:24:37.811Z,30.34
2023-03-28T06:25:09.325Z,30.46
2023-03-28T06:25:40.754Z,30.43
2023-03-28T06:26:12.183Z,30.66
2023-03-28T06:26:43.634Z,30.33
2023-03-28T06:27:15.183Z,30.38
2023-03-28T06:27:46.702Z,30.37
2023-03-28T06:28:18.163Z,30.51
2023-03-28T06:28:49.566Z,30.52
2023-03-28T06:29:20.980Z,30.46
2023-03-28T06:29:52.391Z,30.22
2023-03-28T06:30:24.052Z,30.31
2023-03-28T06:30:55.620Z,30.29
2023-03-28T06:31:27.385Z,30.30
2023-03-28T06:31:58.949Z,30.61
2023-03-28T06:32:30.610Z,30.26
2023-03-28T06:33:02.146Z,30.33
2023-03-28T06:33:33.710Z,30.32
2023-03-28T06:34:05.093Z,30.36
2023-03-28T06:34:36.498Z,30.24
2023-03-28T06:35:07.986Z,30.50
2023-03-28T06:35:39.491Z,30.28
2023-03-28T06:36:10.994Z,30.35
2023-03-28T06:36:42.482Z,30.48
2023-03-28T06:37:13.900Z,30.56
2023-03-28T06:37:45.454Z,30.38
2023-03-28T06:38:16.969Z,30.41
2023-03-28T06:38:48.434Z,30.32
2023-03-28T06:39:19.883Z,30.30
2023-03-28T06:39:51.402Z,30.50
2023-03-28T06:40:22.898Z,30.34
2023-03-28T06:40:54.462Z,30.34
2023-03-28T06:41:25.873Z,30.39
2023-03-28T06:42:00.318Z,30.23
2023-03-28T06:42:31.821Z,30.51
2023-03-28T06:43:03.352Z,30.26
2023-03-28T06:43:37.526Z,30.30
2023-03-28T06:44:08.933Z,30.46
2023-03-28T06:44:41.940Z,30.43
2023-03-28T06:45:13.445Z,30.60
2023-03-28T06:45:44.901Z,30.44
2023-03-28T06:46:16.462Z,30.61
2023-03-28T06:46:47.979Z,30.39
2023-03-28T06:47:19.509Z,30.40
2023-03-28T06:47:51.074Z,30.47
2023-03-28T06:48:22.817Z,30.43
2023-03-28T06:48:54.287Z,30.43
2023-03-28T06:49:25.931Z,30.56